createdAt,value
2022-11-04T00:01:43.046Z,9.20
2022-11-04T00:04:17.297Z,9.24
2022-11-04T00:06:49.973Z,9.26
2022-11-04T00:09:23.692Z,9.33
2022-11-04T00:12:16.990Z,9.38
2022-11-04T00:14:49.013Z,9.41
2022-11-04T00:17:23.015Z,9.44
2022-11-04T00:20:13.957Z,9.50
2022-11-04T00:23:07.115Z,9.55
2022-11-04T00:25:57.206Z,9.56
2022-11-04T00:28:44.180Z,9.52
2022-11-04T00:31:35.170Z,9.55
2022-11-04T00:34:07.888Z,9.58
2022-11-04T00:36:44.497Z,9.60
2022-11-04T00:39:16.481Z,9.62
2022-11-04T00:41:48.493Z,9.65
2022-11-04T00:44:20.518Z,9.69
2022-11-04T00:46:52.318Z,9.71
2022-11-04T00:49:24.366Z,9.70
2022-11-04T00:51:56.421Z,9.73
2022-11-04T00:54:28.275Z,9.76
2022-11-04T00:57:00.301Z,9.80
2022-11-04T00:59:32.351Z,9.84
2022-11-04T01:02:04.608Z,9.88
2022-11-04T01:04:37.245Z,9.91
2022-11-04T01:07:12.139Z,9.96
2022-11-04T01:09:47.450Z,9.96
2022-11-04T01:12:19.515Z,9.96
2022-11-04T01:14:51.749Z,9.94
2022-11-04T01:17:25.044Z,9.98
2022-11-04T01:19:56.939Z,9.99
2022-11-04T01:22:31.339Z,10.03
2022-11-04T01:25:03.699Z,10.03
2022-11-04T01:27:35.543Z,10.08
2022-11-04T01:30:09.668Z,10.10
2022-11-04T01:32:42.412Z,10.12
2022-11-04T01:35:14.329Z,10.11
2022-11-04T01:37:46.219Z,10.09
2022-11-04T01:40:18.895Z,10.10
2022-11-04T01:42:50.922Z,10.10
2022-11-04T01:45:23.895Z,10.09
2022-11-04T01:48:04.795Z,10.09
2022-11-04T01:50:38.011Z,10.12
2022-11-04T01:53:14.641Z,10.15
2022-11-04T01:55:50.984Z,10.17
2022-11-04T01:58:27.661Z,10.17
2022-11-04T02:00:59.821Z,10.14
2022-11-04T02:03:35.839Z,10.20
2022-11-04T02:06:08.955Z,10.20
2022-11-04T02:08:44.211Z,10.17
2022-11-04T02:11:30.671Z,10.13
2022-11-04T02:14:03.433Z,10.11
2022-11-04T02:16:43.973Z,10.16
2022-11-04T02:19:38.740Z,10.16
2022-11-04T02:22:53.530Z,10.16
2022-11-04T02:25:50.021Z,10.18
2022-11-04T02:28:51.423Z,10.22
2022-11-04T02:31:32.378Z,10.19
2022-11-04T02:34:12.509Z,10.15
2022-11-04T02:36:48.804Z,10.18
2022-11-04T02:39:26.939Z,10.15
2022-11-04T02:42:05.393Z,10.17
2022-11-04T02:44:40.459Z,10.16
2022-11-04T02:47:18.136Z,10.18
2022-11-04T02:49:57.860Z,10.19
2022-11-04T02:52:37.907Z,10.18
2022-11-04T02:55:17.587Z,10.17
2022-11-04T02:57:55.400Z,10.19
2022-11-04T03:00:30.556Z,10.22
2022-11-04T03:03:08.075Z,10.24
2022-11-04T03:05:45.963Z,10.26
2022-11-04T03:08:22.762Z,10.24
2022-11-04T03:11:01.943Z,10.26
2022-11-04T03:13:43.349Z,10.26
2022-11-04T03:16:18.930Z,10.24
2022-11-04T03:18:58.934Z,10.25
2022-11-04T03:21:35.196Z,10.19
2022-11-04T03:24:08.546Z,10.20
2022-11-04T03:26:46.235Z,10.21
2022-11-04T03:29:28.274Z,10.20
2022-11-04T03:32:10.444Z,10.16
2022-11-04T03:34:42.755Z,10.18
2022-11-04T03:37:14.929Z,10.20
2022-11-04T03:39:47.111Z,10.22
2022-11-04T03:42:23.498Z,10.19
2022-11-04T03:44:57.804Z,10.17
2022-11-04T03:47:32.183Z,10.17
2022-11-04T03:50:11.185Z,10.18
2022-11-04T03:52:43.447Z,10.14
2022-11-04T03:55:16.538Z,10.14
2022-11-04T03:57:56.558Z,10.19
2022-11-04T04:00:35.708Z,10.15
2022-11-04T04:03:14.864Z,10.20
2022-11-04T04:05:54.387Z,10.18
2022-11-04T04:08:37.631Z,10.18
2022-11-04T04:11:18.913Z,10.18
2022-11-04T04:14:00.816Z,10.19
2022-11-04T04:16:40.950Z,10.21
2022-11-04T04:19:15.838Z,10.26
2022-11-04T04:21:53.577Z,10.25
2022-11-04T04:24:49.523Z,10.24
2022-11-04T04:27:32.237Z,10.28
2022-11-04T04:30:08.630Z,10.27
2022-11-04T04:32:45.405Z,10.28
2022-11-04T04:35:36.539Z,10.29
2022-11-04T04:38:32.116Z,10.26
2022-11-04T04:41:32.609Z,10.25
2022-11-04T04:44:23.052Z,10.25
2022-11-04T04:46:56.965Z,10.22
2022-11-04T04:49:35.279Z,10.22
2022-11-04T04:52:09.853Z,10.25
2022-11-04T04:54:41.766Z,10.28
2022-11-04T04:57:14.001Z,10.29
2022-11-04T04:59:46.164Z,10.31
2022-11-04T05:02:18.217Z,10.32
2022-11-04T05:04:50.224Z,10.34
2022-11-04T05:07:22.139Z,10.35
2022-11-04T05:09:54.064Z,10.34
2022-11-04T05:12:26.196Z,10.33
2022-11-04T05:15:01.173Z,10.32
2022-11-04T05:17:33.231Z,10.33
2022-11-04T05:20:05.242Z,10.34
2022-11-04T05:22:40.637Z,10.34
2022-11-04T05:25:13.056Z,10.28
2022-11-04T05:27:45.631Z,10.29
2022-11-04T05:30:21.968Z,10.31
2022-11-04T05:33:00.041Z,10.35
2022-11-04T05:35:35.986Z,10.32
2022-11-04T05:38:07.922Z,10.26
2022-11-04T05:40:42.019Z,10.27
2022-11-04T05:43:13.835Z,10.29
2022-11-04T05:45:49.324Z,10.30
2022-11-04T05:48:21.788Z,10.30
2022-11-04T05:50:53.722Z,10.29
2022-11-04T05:56:02.350Z,10.36
2022-11-04T05:58:34.314Z,10.32
2022-11-04T06:01:24.902Z,10.25
2022-11-04T06:03:58.069Z,10.24
2022-11-04T06:06:32.383Z,10.23
2022-11-04T06:09:05.247Z,10.23
2022-11-04T06:11:38.483Z,10.22
2022-11-04T06:14:13.546Z,10.28
2022-11-04T06:16:48.216Z,10.27
2022-11-04T06:19:20.211Z,10.31
2022-11-04T06:21:52.022Z,10.30
2022-11-04T06:24:24.126Z,10.30
2022-11-04T06:26:56.129Z,10.26
2022-11-04T06:29:28.179Z,10.23
2022-11-04T06:32:00.505Z,10.26
2022-11-04T06:34:32.391Z,10.24
2022-11-04T06:37:04.211Z,10.27
2022-11-04T06:39:36.142Z,10.29
2022-11-04T06:42:11.236Z,10.32
2022-11-04T06:44:43.152Z,10.28
2022-11-04T06:47:15.036Z,10.25
2022-11-04T06:49:46.921Z,10.30
2022-11-04T06:52:18.907Z,10.34
2022-11-04T06:54:50.916Z,10.33
2022-11-04T06:57:28.329Z,10.33
2022-11-04T07:00:00.538Z,10.35
2022-11-04T07:02:32.841Z,10.36
2022-11-04T07:05:05.253Z,10.35
2022-11-04T07:07:37.549Z,10.39
2022-11-04T07:10:11.352Z,10.39
2022-11-04T07:12:43.941Z,10.43
2022-11-04T07:15:15.778Z,10.48
2022-11-04T07:17:47.805Z,10.53
2022-11-04T07:20:19.824Z,10.52
2022-11-04T07:22:51.968Z,10.57
2022-11-04T07:25:24.190Z,10.57
2022-11-04T07:27:58.142Z,10.57
2022-11-04T07:30:33.773Z,10.57
2022-11-04T07:33:06.083Z,10.57
2022-11-04T07:35:38.979Z,10.61
2022-11-04T07:38:11.124Z,10.68
2022-11-04T07:40:43.739Z,10.71
2022-11-04T07:43:15.944Z,10.74
2022-11-04T07:45:48.063Z,10.74
2022-11-04T07:48:20.007Z,10.81
2022-11-04T07:50:55.637Z,10.83
2022-11-04T07:53:30.217Z,10.84
2022-11-04T07:56:06.960Z,10.79
2022-11-04T07:58:39.208Z,10.81
2022-11-04T08:01:13.042Z,10.81
2022-11-04T08:03:45.210Z,10.79
2022-11-04T08:06:18.998Z,10.82
2022-11-04T08:08:54.062Z,10.79
2022-11-04T08:11:28.466Z,10.77
2022-11-04T08:14:06.516Z,10.78
2022-11-04T08:16:38.748Z,10.79
2022-11-04T08:19:11.162Z,10.81
2022-11-04T08:21:43.144Z,10.83
2022-11-04T08:24:19.181Z,10.86
2022-11-04T08:26:51.353Z,10.89
2022-11-04T08:29:23.846Z,10.93
2022-11-04T08:31:55.794Z,10.89
2022-11-04T08:34:27.744Z,10.90
2022-11-04T08:37:00.492Z,10.92
2022-11-04T08:39:32.549Z,10.97
2022-11-04T08:42:05.037Z,11.00
2022-11-04T08:44:39.724Z,11.04
2022-11-04T08:47:11.794Z,11.04
2022-11-04T08:49:43.842Z,11.02
2022-11-04T08:52:15.861Z,11.04
2022-11-04T08:54:48.006Z,11.03
2022-11-04T08:57:19.935Z,11.06
2022-11-04T08:59:51.806Z,11.03
2022-11-04T09:02:23.682Z,11.06
2022-11-04T09:04:55.565Z,11.12
2022-11-04T09:07:30.535Z,11.16
2022-11-04T09:10:02.985Z,11.23
2022-11-04T09:12:35.284Z,11.24
2022-11-04T09:15:09.068Z,11.27
2022-11-04T09:17:41.437Z,11.30
2022-11-04T09:20:13.568Z,11.29
2022-11-04T09:22:46.071Z,11.33
2022-11-04T09:25:20.835Z,11.36
2022-11-04T09:27:53.567Z,11.37
2022-11-04T09:30:25.673Z,11.40
2022-11-04T09:32:58.273Z,11.37
2022-11-04T09:35:30.806Z,11.37
2022-11-04T09:38:03.333Z,11.41
2022-11-04T09:40:38.591Z,11.43
2022-11-04T09:43:27.848Z,11.45
2022-11-04T09:46:02.528Z,11.50
2022-11-04T09:48:39.820Z,11.50
2022-11-04T09:51:26.249Z,11.53
2022-11-04T09:54:11.929Z,11.53
2022-11-04T09:56:48.188Z,11.47
2022-11-04T09:59:26.765Z,11.46
2022-11-04T10:02:26.338Z,11.50
2022-11-04T10:05:10.086Z,11.47
2022-11-04T10:08:03.881Z,11.48
2022-11-04T10:10:46.019Z,11.47
2022-11-04T10:13:28.643Z,11.47
2022-11-04T10:16:18.254Z,11.43
2022-11-04T10:19:06.122Z,11.38
2022-11-04T10:21:48.316Z,11.32
2022-11-04T10:24:33.017Z,11.28
2022-11-04T10:27:12.071Z,11.31
2022-11-04T10:29:47.045Z,11.35
2022-11-04T10:32:26.422Z,11.35
2022-11-04T10:35:02.733Z,11.41
2022-11-04T10:37:35.482Z,11.38
2022-11-04T10:40:25.336Z,11.36
2022-11-04T10:42:59.704Z,11.33
2022-11-04T10:45:37.705Z,11.37
2022-11-04T10:48:16.070Z,11.42
2022-11-04T10:50:54.367Z,11.51
2022-11-04T10:53:30.894Z,11.52
2022-11-04T10:56:08.144Z,11.53
2022-11-04T10:58:46.273Z,11.56
2022-11-04T11:01:30.968Z,11.58
2022-11-04T11:04:07.443Z,11.61
2022-11-04T11:06:39.883Z,11.59
2022-11-04T11:09:20.655Z,11.56
2022-11-04T11:11:57.561Z,11.55
2022-11-04T11:14:38.278Z,11.61
2022-11-04T11:17:25.270Z,11.68
2022-11-04T11:20:05.983Z,11.74
2022-11-04T11:22:42.756Z,11.77
2022-11-04T11:25:31.956Z,11.79
2022-11-04T11:28:07.568Z,11.78
2022-11-04T11:30:56.584Z,11.75
2022-11-04T11:33:30.763Z,11.79
2022-11-04T11:36:07.209Z,11.84
2022-11-04T11:38:42.686Z,11.91
2022-11-04T11:41:24.849Z,11.86
2022-11-04T11:43:59.345Z,11.83
2022-11-04T11:46:36.499Z,11.85
2022-11-04T11:49:23.829Z,11.85
2022-11-04T11:51:56.086Z,11.84
2022-11-04T11:54:34.800Z,11.88
2022-11-04T11:57:28.784Z,11.89
2022-11-04T12:03:10.027Z,11.93
2022-11-04T12:11:59.766Z,12.01
2022-11-04T12:14:48.995Z,12.03
2022-11-04T12:17:43.214Z,11.99
2022-11-04T12:20:28.931Z,11.93
2022-11-04T12:23:11.318Z,11.93
2022-11-04T12:25:55.871Z,11.88
2022-11-04T12:28:39.161Z,11.83
2022-11-04T12:31:22.730Z,11.79
2022-11-04T12:34:04.036Z,11.85
2022-11-04T12:36:49.393Z,11.91
2022-11-04T12:39:35.513Z,11.90
2022-11-04T12:42:21.877Z,11.95
2022-11-04T12:45:09.113Z,11.95
2022-11-04T12:47:45.308Z,11.93
2022-11-04T12:50:40.954Z,11.96
2022-11-04T12:53:41.251Z,11.98
2022-11-04T12:56:19.071Z,12.00
2022-11-04T12:59:16.803Z,12.04
2022-11-04T13:01:54.107Z,12.02
2022-11-04T13:04:33.014Z,12.01
2022-11-04T13:07:11.218Z,11.97
2022-11-04T13:09:47.885Z,11.93
2022-11-04T13:12:25.133Z,11.92
2022-11-04T13:15:01.912Z,11.89
2022-11-04T13:17:39.119Z,11.88
2022-11-04T13:20:21.789Z,11.90
2022-11-04T13:23:03.499Z,11.91
2022-11-04T13:25:41.989Z,11.92
2022-11-04T13:28:17.790Z,11.91
2022-11-04T13:30:56.551Z,11.88
2022-11-04T13:33:56.590Z,11.84
2022-11-04T13:36:41.357Z,11.77
2022-11-04T13:39:29.428Z,11.75
2022-11-04T13:42:29.293Z,11.69
2022-11-04T13:45:11.959Z,11.67
2022-11-04T13:47:51.456Z,11.67
2022-11-04T13:50:38.024Z,11.65
2022-11-04T13:53:12.458Z,11.64
2022-11-04T13:55:52.464Z,11.66
2022-11-04T13:58:28.631Z,11.69
2022-11-04T14:01:29.223Z,11.70
2022-11-04T14:04:31.780Z,11.67
2022-11-04T14:07:07.343Z,11.61
2022-11-04T14:10:01.790Z,11.66
2022-11-04T14:12:36.910Z,11.70
2022-11-04T14:15:43.178Z,11.68
2022-11-04T14:18:32.222Z,11.62
2022-11-04T14:21:16.674Z,11.64
2022-11-04T14:23:53.963Z,11.63
2022-11-04T14:26:28.648Z,11.75
2022-11-04T14:29:11.208Z,11.78
2022-11-04T14:31:48.771Z,11.81
2022-11-04T14:34:30.080Z,11.82
2022-11-04T14:37:03.834Z,11.81
2022-11-04T14:39:40.006Z,11.79
2022-11-04T14:42:15.591Z,11.80
2022-11-04T14:44:51.051Z,11.82
2022-11-04T14:47:27.829Z,11.87
2022-11-04T14:50:07.729Z,11.88
2022-11-04T14:52:50.298Z,11.88
2022-11-04T14:55:24.724Z,11.89
2022-11-04T14:57:58.771Z,11.89
2022-11-04T15:00:40.198Z,11.92
2022-11-04T15:06:40.274Z,11.93
2022-11-04T15:09:24.144Z,11.90
2022-11-04T15:12:23.520Z,11.90
2022-11-04T15:14:56.239Z,11.84
2022-11-04T15:17:37.102Z,11.82
2022-11-04T15:20:22.879Z,11.86
2022-11-04T15:22:57.407Z,11.86
2022-11-04T15:25:29.888Z,11.87
2022-11-04T15:28:02.047Z,11.89
2022-11-04T15:30:34.825Z,11.94
2022-11-04T15:33:16.819Z,11.95
2022-11-04T15:35:49.073Z,11.91
2022-11-04T15:38:22.172Z,11.90
2022-11-04T15:40:55.508Z,11.94
2022-11-04T15:43:27.691Z,11.95
2022-11-04T15:46:02.333Z,11.94
2022-11-04T15:48:38.083Z,11.94
2022-11-04T15:51:23.268Z,11.94
2022-11-04T15:53:59.934Z,11.93
2022-11-04T15:57:02.337Z,11.90
2022-11-04T15:59:37.559Z,11.82
2022-11-04T16:02:24.474Z,11.85
2022-11-04T16:05:09.005Z,11.90
2022-11-04T16:07:42.738Z,11.89
2022-11-04T16:10:31.325Z,11.86
2022-11-04T16:13:05.415Z,11.86
2022-11-04T16:15:40.535Z,11.86
2022-11-04T16:18:26.092Z,11.91
2022-11-04T16:21:01.431Z,11.89
2022-11-04T16:23:34.322Z,11.93
2022-11-04T16:26:08.377Z,11.99
2022-11-04T16:28:42.334Z,12.03
2022-11-04T16:31:28.890Z,12.06
2022-11-04T16:34:00.883Z,12.08
2022-11-04T16:36:35.864Z,12.12
2022-11-04T16:39:09.318Z,12.15
2022-11-04T16:41:43.161Z,12.13
2022-11-04T16:44:22.775Z,12.13
2022-11-04T16:46:58.143Z,12.17
2022-11-04T16:49:30.038Z,12.17
2022-11-04T16:52:04.448Z,12.16
2022-11-04T16:58:54.293Z,12.09
2022-11-04T17:06:06.236Z,11.92
2022-11-04T17:08:59.930Z,11.97
2022-11-04T17:12:07.334Z,12.03
2022-11-04T17:15:36.435Z,12.11
2022-11-04T17:18:49.324Z,12.07
2022-11-04T17:25:35.261Z,11.95
2022-11-04T17:28:57.396Z,11.97
2022-11-04T17:31:57.670Z,11.98
2022-11-04T17:48:03.562Z,12.25
2022-11-04T17:50:33.950Z,12.17
2022-11-04T17:53:02.639Z,12.20
2022-11-04T17:55:38.453Z,12.23
2022-11-04T17:58:07.955Z,12.23
2022-11-04T18:00:36.386Z,12.21
2022-11-04T18:03:08.473Z,12.21
2022-11-04T18:05:38.571Z,12.17
2022-11-04T18:08:16.172Z,12.15
2022-11-04T18:10:48.060Z,12.11
2022-11-04T18:13:19.673Z,12.10
2022-11-04T18:15:48.642Z,12.08
2022-11-04T18:18:20.035Z,12.09
2022-11-04T18:20:51.722Z,12.07
2022-11-04T18:23:22.137Z,12.04
2022-11-04T18:25:50.988Z,12.04
2022-11-04T18:28:58.941Z,12.01
2022-11-04T18:31:30.436Z,11.98
2022-11-04T18:34:04.412Z,11.96
2022-11-04T18:36:34.294Z,12.00
2022-11-04T18:39:10.773Z,12.02
2022-11-04T18:41:42.499Z,12.02
2022-11-04T18:44:15.522Z,12.00
2022-11-04T18:46:45.167Z,11.99
2022-11-04T18:49:14.637Z,11.98
2022-11-04T18:51:43.684Z,11.97
2022-11-04T18:54:12.928Z,11.96
2022-11-04T18:56:41.995Z,11.91
2022-11-04T18:59:13.288Z,11.93
2022-11-04T19:01:42.755Z,11.90
2022-11-04T19:04:13.006Z,11.88
2022-11-04T19:06:43.364Z,11.82
2022-11-04T19:09:40.698Z,11.88
2022-11-04T19:12:27.111Z,11.87
2022-11-04T19:14:56.070Z,11.82
2022-11-04T19:17:24.907Z,11.85
2022-11-04T19:19:53.474Z,11.83
2022-11-04T19:22:22.501Z,11.81
2022-11-04T19:24:51.612Z,11.78
2022-11-04T19:27:22.469Z,11.78
2022-11-04T19:29:51.470Z,11.78
2022-11-04T19:32:20.262Z,11.76
2022-11-04T19:34:49.563Z,11.77
2022-11-04T19:37:18.128Z,11.78
2022-11-04T19:39:46.816Z,11.77
2022-11-04T19:42:34.782Z,11.76
2022-11-04T19:45:04.931Z,11.72
2022-11-04T19:47:38.643Z,11.71
2022-11-04T19:50:12.120Z,11.69
2022-11-04T19:52:42.296Z,11.64
2022-11-04T19:55:11.067Z,11.62
2022-11-04T19:57:39.803Z,11.57
2022-11-04T20:00:13.941Z,11.56
2022-11-04T20:02:42.580Z,11.53
2022-11-04T20:05:14.132Z,11.50
2022-11-04T20:07:42.963Z,11.51
2022-11-04T20:10:11.869Z,11.48
2022-11-04T20:13:01.768Z,11.44
2022-11-04T20:15:30.660Z,11.41
2022-11-04T20:17:59.477Z,11.41
2022-11-04T20:20:28.293Z,11.41
2022-11-04T20:22:56.723Z,11.38
2022-11-04T20:25:25.365Z,11.37
2022-11-04T20:27:54.100Z,11.36
2022-11-04T20:30:22.550Z,11.32
2022-11-04T20:32:51.016Z,11.29
2022-11-04T20:35:22.569Z,11.25
2022-11-04T20:37:51.553Z,11.19
2022-11-04T20:40:22.685Z,11.17
2022-11-04T20:42:51.227Z,11.15
2022-11-04T20:45:20.753Z,11.12
2022-11-04T20:47:50.817Z,11.09
2022-11-04T20:50:19.963Z,11.04
2022-11-04T20:52:48.525Z,11.02
2022-11-04T20:55:19.703Z,11.00
2022-11-04T20:57:48.545Z,11.01
2022-11-04T21:00:18.469Z,10.98
2022-11-04T21:02:46.956Z,10.95
2022-11-04T21:05:19.230Z,10.93
2022-11-04T21:07:47.785Z,10.93
2022-11-04T21:10:17.147Z,10.84
2022-11-04T21:12:45.554Z,10.82
2022-11-04T21:15:28.922Z,10.81
2022-11-04T21:17:57.495Z,10.77
2022-11-04T21:20:26.887Z,10.70
2022-11-04T21:22:55.414Z,10.69
2022-11-04T21:25:24.172Z,10.66
2022-11-04T21:27:52.622Z,10.64
2022-11-04T21:30:21.257Z,10.63
2022-11-04T21:32:49.839Z,10.60
2022-11-04T21:35:18.678Z,10.58
2022-11-04T21:37:47.064Z,10.55
2022-11-04T21:40:17.790Z,10.51
2022-11-04T21:42:46.306Z,10.43
2022-11-04T21:45:17.405Z,10.38
2022-11-04T21:47:47.961Z,10.36
2022-11-04T21:50:18.274Z,10.35
2022-11-04T21:52:46.911Z,10.33
2022-11-04T21:55:15.485Z,10.29
2022-11-04T21:57:44.160Z,10.23
2022-11-04T22:00:15.029Z,10.19
2022-11-04T22:02:46.603Z,10.17
2022-11-04T22:05:16.008Z,10.14
2022-11-04T22:08:03.156Z,10.12
2022-11-04T22:10:31.914Z,10.10
2022-11-04T22:13:03.680Z,10.11
2022-11-04T22:15:50.369Z,10.11
2022-11-04T22:18:19.069Z,10.09
2022-11-04T22:20:47.575Z,10.09
2022-11-04T22:23:18.923Z,10.09
2022-11-04T22:25:50.125Z,10.11
2022-11-04T22:28:19.363Z,10.12
2022-11-04T22:30:47.754Z,10.13
2022-11-04T22:33:16.300Z,10.15
2022-11-04T22:35:46.197Z,10.16
2022-11-04T22:38:14.633Z,10.14
2022-11-04T22:40:43.191Z,10.14
2022-11-04T22:43:12.065Z,10.17
2022-11-04T22:45:40.943Z,10.19
2022-11-04T22:48:09.499Z,10.21
2022-11-04T22:50:38.532Z,10.20
2022-11-04T22:53:07.176Z,10.19
2022-11-04T22:55:36.604Z,10.17
2022-11-04T22:58:05.159Z,10.18
2022-11-04T23:00:33.694Z,10.14
2022-11-04T23:03:03.295Z,10.10
2022-11-04T23:05:33.000Z,10.07
2022-11-04T23:08:01.834Z,10.09
2022-11-04T23:10:48.899Z,10.09
2022-11-04T23:13:36.086Z,10.08
2022-11-04T23:16:23.750Z,10.06
2022-11-04T23:18:52.474Z,10.05
2022-11-04T23:21:46.328Z,10.04
2022-11-04T23:24:33.009Z,10.02
2022-11-04T23:27:01.557Z,10.01
2022-11-04T23:29:48.345Z,10.02
2022-11-04T23:32:17.372Z,10.04
2022-11-04T23:35:03.988Z,10.06
2022-11-04T23:37:32.493Z,10.02
2022-11-04T23:40:01.231Z,10.02
2022-11-04T23:42:29.833Z,10.03
2022-11-04T23:45:25.108Z,10.02
2022-11-04T23:48:14.722Z,9.99
2022-11-04T23:51:01.934Z,9.98
2022-11-04T23:53:48.875Z,9.98
2022-11-04T23:56:35.885Z,9.97
2022-11-04T23:59:29.019Z,9.91
